Aérodrome :
LOGIN :

S'inscrire | Disclaimer

   EN    FR    IT 

 










Légende :    VFR   VFR Marginal   IFR   IFR Intensif   IFR Très Intensif
Visi : 
Plafond : 
>= 8 km
>= 3000ft
5 à 8 km
1000 à 3000 ft
1500m à 5 km
500 à 1000 ft
800 à 1500m
200 à 500 ft
< 800m
< 200 ft
Symboles :   Orages  Brouillard  Fortes neiges  Fortes précipitations  Vent > 20 kt
SIGMETs :   Divers  Orages  Givrage  Turbulence  Onde Orograph.  Cendres Volcan.






- Altitude de l'aérodrome : 126 ft
- Code IATA : WIC


EGPC - Wick

DERNIER METAR :
  • 102320Z AUTO 12006KT 0600 FG BKN001/// 13/13 Q1022

METARs EXPIRÉS :
  • 102250Z AUTO 10004KT 4300 BR OVC001/// 13/12 Q1022
  • 102220Z AUTO 11003KT 2200 BR VV/// 11/11 Q1022
  • 102150Z AUTO 13002KT 0600 FG VV/// 12/12 Q1022
  • 102120Z AUTO 13005KT 0300 FG NCD 11/11 Q1022
  • 102050Z AUTO 13004KT 0450 FG FEW002/// 11/11 Q1022

TAF AMD TAF EGPC
Valide du 10 à 22h jusqu'au 11 à 06h UTC


102232Z 1022/1106 15009KT 9999 SCT010
TEMPO 1022/1106 4000 BR BKN008
PROB30
TEMPO 1022/1106 0300 FG VV///
ATIS : +44 1955 607 596



MET'MAP, la Météo Aéronautique d'un coup d'oeil ! - Copyright ORBIFLY Décembre 2007 - Disclaimer

ORBIFLY MET'MAP TEAM :

Programmation & Développement : Alexandra Zaïnal
Sur une idée originale de : Baudouin d'Aumeries
Assistance à la programmation : Marc-Olivier Méhu
Soutien technique & logistique : Manuel Goepfert

Contact : metmap@orbifly.com




SOURCES & CREDITS :

   NOAA